createdAt,value
2023-03-26T00:00:50.254Z,99427.25
2023-03-26T00:06:09.067Z,99432.41
2023-03-26T00:11:12.421Z,99436.16
2023-03-26T00:16:17.366Z,99471.06
2023-03-26T00:21:21.690Z,99457.91
2023-03-26T00:26:23.972Z,99467.53
2023-03-26T00:31:25.820Z,99459.28
2023-03-26T00:36:27.351Z,99468.66
2023-03-26T00:41:31.080Z,99460.81
2023-03-26T00:46:32.994Z,99459.13
2023-03-26T00:51:35.025Z,99450.69
2023-03-26T00:56:36.896Z,99448.31
2023-03-26T01:01:38.528Z,99446.41
2023-03-26T01:06:42.251Z,99457.75
2023-03-26T01:11:44.942Z,99463.34
2023-03-26T01:17:22.617Z,99461.31
2023-03-26T01:22:26.544Z,99462.88
2023-03-26T01:27:56.039Z,99459.94
2023-03-26T01:33:45.508Z,99469.13
2023-03-26T01:39:21.287Z,99457.56
2023-03-26T01:44:50.438Z,99463.44
2023-03-26T01:50:25.861Z,99454.84
2023-03-26T01:55:56.484Z,99450.34
2023-03-26T02:01:08.879Z,99444.28
2023-03-26T02:06:30.707Z,99444.50
2023-03-26T02:11:35.924Z,99449.25
2023-03-26T02:16:37.937Z,99447.56
2023-03-26T02:21:39.348Z,99437.69
2023-03-26T02:26:41.065Z,99444.19
2023-03-26T02:31:46.271Z,99450.09
2023-03-26T02:36:47.869Z,99436.88
2023-03-26T02:41:49.529Z,99446.84
2023-03-26T02:46:51.366Z,99446.69
2023-03-26T02:52:21.609Z,99452.47
2023-03-26T02:57:25.547Z,99449.63
2023-03-26T03:02:54.125Z,99438.50
2023-03-26T03:08:05.961Z,99438.66
2023-03-26T03:13:10.237Z,99428.16
2023-03-26T03:18:11.837Z,99432.25
2023-03-26T03:23:13.699Z,99431.56
2023-03-26T03:28:18.177Z,99422.84
2023-03-26T03:33:20.880Z,99415.28
2023-03-26T03:38:22.679Z,99424.03
2023-03-26T03:43:27.459Z,99423.13
2023-03-26T03:48:56.044Z,99421.66
2023-03-26T03:54:05.678Z,99415.44
2023-03-26T03:59:21.958Z,99417.22
2023-03-26T04:04:24.706Z,99418.16
2023-03-26T04:09:34.051Z,99412.38
2023-03-26T04:14:43.387Z,99409.53
2023-03-26T04:19:53.065Z,99403.66
2023-03-26T04:24:54.751Z,99407.16
2023-03-26T04:30:03.956Z,99404.41
2023-03-26T04:35:06.796Z,99399.22
2023-03-26T04:40:13.544Z,99393.81
2023-03-26T04:45:30.340Z,99398.84
2023-03-26T04:50:31.903Z,99403.50
2023-03-26T04:55:44.020Z,99393.81
2023-03-26T05:00:54.412Z,99393.00
2023-03-26T05:05:56.411Z,99407.41
2023-03-26T05:10:58.138Z,99394.38
2023-03-26T05:16:06.858Z,99405.19
2023-03-26T05:21:12.951Z,99415.53
2023-03-26T05:26:15.711Z,99405.69
2023-03-26T05:31:23.466Z,99404.03
2023-03-26T05:36:29.493Z,99413.66
2023-03-26T05:41:41.504Z,99419.88
2023-03-26T05:46:43.060Z,99428.56
2023-03-26T05:51:53.756Z,99426.84
2023-03-26T05:57:15.640Z,99440.97
2023-03-26T06:02:35.933Z,99422.09
2023-03-26T06:08:14.177Z,99429.47
2023-03-26T06:13:23.080Z,99428.78
2023-03-26T06:18:26.750Z,99429.06
2023-03-26T06:23:55.265Z,99416.78
2023-03-26T06:29:15.408Z,99422.56
2023-03-26T06:34:28.932Z,99413.91
2023-03-26T06:39:31.159Z,99416.59
2023-03-26T06:44:46.148Z,99412.94
2023-03-26T06:50:06.809Z,99416.44
2023-03-26T06:55:27.213Z,99412.94
2023-03-26T07:00:48.300Z,99406.25
2023-03-26T07:06:10.236Z,99409.28
2023-03-26T07:11:30.308Z,99414.34
2023-03-26T07:16:54.205Z,99399.13
2023-03-26T07:22:20.702Z,99406.44
2023-03-26T07:27:59.867Z,99393.22
2023-03-26T07:33:49.302Z,99401.16
2023-03-26T07:39:49.849Z,99401.22
2023-03-26T07:45:36.060Z,99401.19
2023-03-26T07:50:55.042Z,99406.56
2023-03-26T07:56:26.570Z,99395.19
2023-03-26T08:01:38.660Z,99389.50
2023-03-26T08:06:46.907Z,99392.56
2023-03-26T08:12:09.570Z,99384.53
2023-03-26T08:17:30.959Z,99389.72
2023-03-26T08:22:41.063Z,99386.56
2023-03-26T08:27:51.816Z,99392.59
2023-03-26T08:33:05.101Z,99389.38
2023-03-26T08:38:06.582Z,99387.09
2023-03-26T08:43:55.543Z,99388.44
2023-03-26T08:49:03.105Z,99385.75
2023-03-26T08:54:22.526Z,99380.25
2023-03-26T08:59:57.506Z,99372.28
2023-03-26T09:05:26.314Z,99372.97
2023-03-26T09:10:36.763Z,99367.13
2023-03-26T09:15:59.219Z,99368.31
2023-03-26T09:21:13.344Z,99359.31
2023-03-26T09:26:26.020Z,99361.16
2023-03-26T09:31:57.234Z,99358.34
2023-03-26T09:37:13.804Z,99346.88
2023-03-26T09:42:53.373Z,99341.53
2023-03-26T09:48:21.372Z,99337.53
2023-03-26T09:54:32.796Z,99328.13
2023-03-26T10:14:17.274Z,99305.75
2023-03-26T10:20:04.883Z,99300.25
2023-03-26T10:38:31.344Z,99259.31
2023-03-26T10:49:41.102Z,99249.84
2023-03-26T10:54:54.351Z,99231.19
2023-03-26T11:00:42.943Z,99227.50
2023-03-26T11:05:47.991Z,99221.13
2023-03-26T11:11:05.155Z,99211.13
2023-03-26T11:16:39.966Z,99210.28
2023-03-26T11:21:53.966Z,99202.94
2023-03-26T11:27:36.022Z,99205.84
2023-03-26T11:32:47.821Z,99196.25
2023-03-26T11:37:55.125Z,99192.81
2023-03-26T11:43:02.159Z,99187.72
2023-03-26T11:48:23.371Z,99180.78
2023-03-26T11:53:31.281Z,99177.09
2023-03-26T11:58:51.435Z,99175.06
2023-03-26T12:04:15.791Z,99169.09
2023-03-26T12:09:18.637Z,99176.19
2023-03-26T12:14:26.263Z,99176.41
2023-03-26T12:19:39.505Z,99171.84
2023-03-26T12:24:41.280Z,99166.78
2023-03-26T12:29:43.181Z,99161.38
2023-03-26T12:34:44.954Z,99154.91
2023-03-26T12:40:10.521Z,99165.31
2023-03-26T12:45:12.861Z,99156.53
2023-03-26T12:50:15.322Z,99156.00
2023-03-26T12:55:28.812Z,99152.72
2023-03-26T13:00:50.594Z,99156.34
2023-03-26T13:06:13.841Z,99156.34
2023-03-26T13:11:30.916Z,99138.09
2023-03-26T13:16:56.040Z,99138.13
2023-03-26T13:22:24.591Z,99127.25
2023-03-26T13:27:36.887Z,99125.25
2023-03-26T13:33:14.913Z,99120.88
2023-03-26T13:38:35.137Z,99109.53
2023-03-26T13:43:46.590Z,99109.28
2023-03-26T13:48:54.199Z,99110.44
2023-03-26T13:54:21.573Z,99101.38
2023-03-26T13:59:31.724Z,99092.94
2023-03-26T14:04:43.821Z,99099.72
2023-03-26T14:09:51.782Z,99099.81
2023-03-26T14:14:57.988Z,99097.00
2023-03-26T14:20:23.009Z,99101.09
2023-03-26T14:26:10.494Z,99092.41
2023-03-26T14:31:30.435Z,99105.94
2023-03-26T14:36:52.943Z,99104.22
2023-03-26T14:42:15.031Z,99102.78
2023-03-26T14:47:21.549Z,99100.53
2023-03-26T14:52:36.919Z,99107.84
2023-03-26T14:57:53.615Z,99100.16
2023-03-26T15:03:29.411Z,99094.88
2023-03-26T15:09:10.330Z,99104.13
2023-03-26T15:14:26.706Z,99091.84
2023-03-26T15:19:58.511Z,99100.03
2023-03-26T15:25:18.699Z,99095.94
2023-03-26T15:30:38.838Z,99101.72
2023-03-26T15:36:09.235Z,99100.56
2023-03-26T15:41:22.998Z,99101.97
2023-03-26T15:46:43.401Z,99096.84
2023-03-26T15:51:55.449Z,99098.66
2023-03-26T15:57:19.934Z,99092.69
2023-03-26T16:02:40.575Z,99089.34
2023-03-26T16:08:05.415Z,99096.03
2023-03-26T16:13:22.594Z,99100.03
2023-03-26T16:18:34.359Z,99097.44
2023-03-26T16:23:53.796Z,99104.03
2023-03-26T16:29:16.799Z,99103.84
2023-03-26T16:34:28.392Z,99115.22
2023-03-26T16:39:40.998Z,99107.50
2023-03-26T16:44:47.432Z,99117.16
2023-03-26T16:50:26.126Z,99114.88
2023-03-26T16:55:43.509Z,99109.69
2023-03-26T17:00:59.817Z,99110.69
2023-03-26T17:06:20.920Z,99117.53
2023-03-26T17:11:36.748Z,99117.38
2023-03-26T17:16:48.698Z,99123.88
2023-03-26T17:21:50.354Z,99118.88
2023-03-26T17:27:05.472Z,99127.19
2023-03-26T17:32:11.439Z,99134.13
2023-03-26T17:37:18.935Z,99133.56
2023-03-26T17:42:32.857Z,99136.72
2023-03-26T17:47:48.227Z,99137.72
2023-03-26T17:53:06.059Z,99141.03
2023-03-26T17:58:29.543Z,99143.69
2023-03-26T18:03:41.121Z,99146.00
2023-03-26T18:09:17.576Z,99142.53
2023-03-26T18:15:01.297Z,99155.63
2023-03-26T18:20:09.870Z,99148.31
2023-03-26T18:25:31.454Z,99148.97
2023-03-26T18:30:44.205Z,99153.28
2023-03-26T18:35:51.930Z,99140.31
2023-03-26T18:40:55.247Z,99139.78
2023-03-26T18:45:57.358Z,99138.91
2023-03-26T18:51:06.095Z,99140.16
2023-03-26T18:56:28.358Z,99140.16
2023-03-26T19:01:33.081Z,99133.16
2023-03-26T19:06:39.937Z,99127.97
2023-03-26T19:11:41.636Z,99132.16
2023-03-26T19:16:47.640Z,99126.47
2023-03-26T19:21:50.529Z,99124.81
2023-03-26T19:26:52.545Z,99123.28
2023-03-26T19:32:04.863Z,99118.97
2023-03-26T19:37:24.991Z,99117.16
2023-03-26T19:42:43.725Z,99108.50
2023-03-26T19:47:48.666Z,99103.66
2023-03-26T19:53:16.865Z,99101.16
2023-03-26T19:58:19.727Z,99095.66
2023-03-26T20:03:27.374Z,99097.50
2023-03-26T20:08:29.063Z,99086.66
2023-03-26T20:13:31.163Z,99085.81
2023-03-26T20:18:33.100Z,99083.50
2023-03-26T20:23:34.615Z,99075.50
2023-03-26T20:28:42.457Z,99073.50
2023-03-26T20:33:51.774Z,99070.59
2023-03-26T20:38:53.267Z,99068.41
2023-03-26T20:43:54.707Z,99066.50
2023-03-26T20:48:57.121Z,99062.88
2023-03-26T20:53:58.600Z,99063.19
2023-03-26T20:59:10.655Z,99058.44
2023-03-26T21:04:13.581Z,99059.47
2023-03-26T21:09:17.796Z,99065.44
2023-03-26T21:14:24.787Z,99062.06
2023-03-26T21:19:26.652Z,99063.00
2023-03-26T21:24:40.064Z,99062.84
2023-03-26T21:29:41.828Z,99059.63
2023-03-26T21:34:55.667Z,99057.28
2023-03-26T21:40:01.626Z,99063.53
2023-03-26T21:45:03.511Z,99079.75
2023-03-26T21:50:07.189Z,99075.25
2023-03-26T21:55:10.404Z,99084.28
2023-03-26T22:00:23.645Z,99084.97
2023-03-26T22:05:40.603Z,99085.50
2023-03-26T22:10:42.713Z,99098.50
2023-03-26T22:15:46.174Z,99099.00
2023-03-26T22:20:49.379Z,99106.50
2023-03-26T22:25:51.526Z,99110.00
2023-03-26T22:30:53.192Z,99114.84
2023-03-26T22:35:56.125Z,99113.63
2023-03-26T22:40:58.388Z,99107.28
2023-03-26T22:46:00.410Z,99115.31
2023-03-26T22:51:08.130Z,99119.00
2023-03-26T22:56:11.648Z,99114.91
2023-03-26T23:01:20.266Z,99111.44
2023-03-26T23:06:21.840Z,99112.78
2023-03-26T23:11:23.714Z,99118.63
2023-03-26T23:16:26.480Z,99120.25
2023-03-26T23:21:28.365Z,99120.66
2023-03-26T23:26:40.798Z,99119.00
2023-03-26T23:31:49.480Z,99123.16
2023-03-26T23:36:52.347Z,99125.34
2023-03-26T23:41:54.016Z,99131.22
2023-03-26T23:46:57.871Z,99132.97
2023-03-26T23:51:59.523Z,99134.94
2023-03-26T23:57:04.389Z,99136.84
